Frenchboro, Maine
Current Conditions -  °F | °C
As of 8:15 AM on Thursday 18 Dec 2014 (Local Time) from KBHB Reporting Station
Overcast Overcast  
Wind Chill: 25°   Ceiling: 1100
Heat Index: 32°   Visibility: 5mi
Dew Point: 32°   Wind: 8mph
Humidity: 100%   Direction: 320°NW
Pressure: 29.58"   Gusts: NA
Location:  44.12°N, 68.36°W
Report Text: KBHB 181315Z AUTO 32007KT 280V340 5SM BKN011 BKN015 OVC036 00/00 A2958 RMK AO1
Loading
Personal Weather Stations






























Interactive Weather Map New forecast layout! Learn more

10-Day Weather Forecast

Advertisements
Track Severe Weather on mobile